sensor_id;sensor_type;location;lat;lon;timestamp;pressure;altitude;pressure_sealevel;temperature;humidity
2000;BME280;1001;48.87406500;9.59633600;2022-12-15T00:02:31;93696.59;;;-1.96;100.00
2000;BME280;1001;48.87406500;9.59633600;2022-12-15T00:05:15;93689.91;;;-1.91;100.00
2000;BME280;1001;48.87406500;9.59633600;2022-12-15T00:08:06;93690.69;;;-1.97;100.00
2000;BME280;1001;48.87406500;9.59633600;2022-12-15T00:10:51;93700.75;;;-1.89;100.00
2000;BME280;1001;48.87406500;9.59633600;2022-12-15T00:13:35;93698.75;;;-1.93;100.00
2000;BME280;1001;48.87406500;9.59633600;2022-12-15T00:16:19;93707.84;;;-1.91;100.00
2000;BME280;1001;48.87406500;9.59633600;2022-12-15T00:19:02;93712.03;;;-1.83;100.00
2000;BME280;1001;48.87406500;9.59633600;2022-12-15T00:21:46;93723.09;;;-1.83;100.00
2000;BME280;1001;48.87406500;9.59633600;2022-12-15T00:24:32;93725.69;;;-1.76;100.00
2000;BME280;1001;48.87406500;9.59633600;2022-12-15T00:27:15;93730.56;;;-1.81;100.00
2000;BME280;1001;48.87406500;9.59633600;2022-12-15T00:29:59;93734.13;;;-1.82;100.00
2000;BME280;1001;48.87406500;9.59633600;2022-12-15T00:32:43;93737.41;;;-1.88;100.00
2000;BME280;1001;48.87406500;9.59633600;2022-12-15T00:35:27;93741.28;;;-1.71;100.00
2000;BME280;1001;48.87406500;9.59633600;2022-12-15T00:38:13;93740.53;;;-1.65;100.00
2000;BME280;1001;48.87406500;9.59633600;2022-12-15T00:40:59;93735.41;;;-1.65;100.00
2000;BME280;1001;48.87406500;9.59633600;2022-12-15T00:43:26;93738.19;;;-1.60;100.00
2000;BME280;1001;48.87406500;9.59633600;2022-12-15T00:45:53;93744.19;;;-1.81;100.00
2000;BME280;1001;48.87406500;9.59633600;2022-12-15T00:48:37;93738.34;;;-1.96;100.00
2000;BME280;1001;48.87406500;9.59633600;2022-12-15T00:51:04;93734.25;;;-1.90;100.00
2000;BME280;1001;48.87406500;9.59633600;2022-12-15T00:53:29;93729.50;;;-1.93;100.00
2000;BME280;1001;48.87406500;9.59633600;2022-12-15T00:56:15;93731.22;;;-2.00;100.00
2000;BME280;1001;48.87406500;9.59633600;2022-12-15T00:58:59;93738.19;;;-1.94;100.00
2000;BME280;1001;48.87406500;9.59633600;2022-12-15T01:01:43;93734.19;;;-2.03;100.00
2000;BME280;1001;48.87406500;9.59633600;2022-12-15T01:04:27;93750.53;;;-1.98;100.00
2000;BME280;1001;48.87406500;9.59633600;2022-12-15T01:07:12;93746.88;;;-1.89;100.00
2000;BME280;1001;48.87406500;9.59633600;2022-12-15T01:09:56;93748.25;;;-1.86;100.00
2000;BME280;1001;48.87406500;9.59633600;2022-12-15T01:12:42;93750.47;;;-1.83;100.00
2000;BME280;1001;48.87406500;9.59633600;2022-12-15T01:15:26;93764.72;;;-1.74;100.00
2000;BME280;1001;48.87406500;9.59633600;2022-12-15T01:18:11;93774.31;;;-1.83;100.00
2000;BME280;1001;48.87406500;9.59633600;2022-12-15T01:20:56;93779.00;;;-1.86;100.00
2000;BME280;1001;48.87406500;9.59633600;2022-12-15T01:23:23;93776.03;;;-1.90;100.00
2000;BME280;1001;48.87406500;9.59633600;2022-12-15T01:25:49;93776.63;;;-1.88;100.00
2000;BME280;1001;48.87406500;9.59633600;2022-12-15T01:28:19;93779.56;;;-1.91;100.00
2000;BME280;1001;48.87406500;9.59633600;2022-12-15T01:30:46;93794.69;;;-1.96;100.00
2000;BME280;1001;48.87406500;9.59633600;2022-12-15T01:33:14;93787.25;;;-1.91;100.00
2000;BME280;1001;48.87406500;9.59633600;2022-12-15T01:35:41;93795.69;;;-1.97;100.00
2000;BME280;1001;48.87406500;9.59633600;2022-12-15T01:38:08;93789.72;;;-2.04;100.00
2000;BME280;1001;48.87406500;9.59633600;2022-12-15T01:40:35;93792.50;;;-1.99;100.00
2000;BME280;1001;48.87406500;9.59633600;2022-12-15T01:43:11;93796.63;;;-1.98;100.00
2000;BME280;1001;48.87406500;9.59633600;2022-12-15T01:45:56;93793.69;;;-2.01;100.00
2000;BME280;1001;48.87406500;9.59633600;2022-12-15T01:48:26;93800.59;;;-1.95;100.00
2000;BME280;1001;48.87406500;9.59633600;2022-12-15T01:51:12;93815.59;;;-1.92;100.00
2000;BME280;1001;48.87406500;9.59633600;2022-12-15T01:53:42;93809.34;;;-2.11;100.00
2000;BME280;1001;48.87406500;9.59633600;2022-12-15T01:56:11;93802.38;;;-1.96;100.00
2000;BME280;1001;48.87406500;9.59633600;2022-12-15T01:58:41;93806.50;;;-2.23;100.00
2000;BME280;1001;48.87406500;9.59633600;2022-12-15T02:01:10;93814.78;;;-2.21;100.00
2000;BME280;1001;48.87406500;9.59633600;2022-12-15T02:03:37;93812.06;;;-2.34;100.00
2000;BME280;1001;48.87406500;9.59633600;2022-12-15T02:06:05;93796.72;;;-2.34;100.00
2000;BME280;1001;48.87406500;9.59633600;2022-12-15T02:08:34;93806.94;;;-2.34;100.00
2000;BME280;1001;48.87406500;9.59633600;2022-12-15T02:11:17;93803.06;;;-2.30;100.00
2000;BME280;1001;48.87406500;9.59633600;2022-12-15T02:13:53;93801.13;;;-2.28;100.00
2000;BME280;1001;48.87406500;9.59633600;2022-12-15T02:16:30;93798.72;;;-2.08;100.00
2000;BME280;1001;48.87406500;9.59633600;2022-12-15T02:19:23;93790.31;;;-2.23;100.00
2000;BME280;1001;48.87406500;9.59633600;2022-12-15T02:22:05;93795.75;;;-2.33;100.00
2000;BME280;1001;48.87406500;9.59633600;2022-12-15T02:24:52;93810.97;;;-2.25;100.00
2000;BME280;1001;48.87406500;9.59633600;2022-12-15T02:27:37;93816.63;;;-2.08;100.00
2000;BME280;1001;48.87406500;9.59633600;2022-12-15T02:30:15;93806.31;;;-1.93;100.00
2000;BME280;1001;48.87406500;9.59633600;2022-12-15T02:32:49;93805.94;;;-2.18;100.00
2000;BME280;1001;48.87406500;9.59633600;2022-12-15T02:35:24;93815.13;;;-2.02;100.00
2000;BME280;1001;48.87406500;9.59633600;2022-12-15T02:37:52;93810.31;;;-2.12;100.00
2000;BME280;1001;48.87406500;9.59633600;2022-12-15T02:40:18;93813.00;;;-2.20;100.00
2000;BME280;1001;48.87406500;9.59633600;2022-12-15T02:42:48;93815.91;;;-2.02;100.00
2000;BME280;1001;48.87406500;9.59633600;2022-12-15T02:45:21;93820.56;;;-2.12;100.00
2000;BME280;1001;48.87406500;9.59633600;2022-12-15T02:47:58;93815.72;;;-2.22;100.00
2000;BME280;1001;48.87406500;9.59633600;2022-12-15T02:50:38;93819.44;;;-2.24;100.00
2000;BME280;1001;48.87406500;9.59633600;2022-12-15T02:53:21;93819.91;;;-2.21;100.00
2000;BME280;1001;48.87406500;9.59633600;2022-12-15T02:55:58;93816.47;;;-2.28;100.00
2000;BME280;1001;48.87406500;9.59633600;2022-12-15T02:58:36;93821.41;;;-2.26;100.00
2000;BME280;1001;48.87406500;9.59633600;2022-12-15T03:01:09;93829.94;;;-2.40;100.00
2000;BME280;1001;48.87406500;9.59633600;2022-12-15T03:03:38;93832.53;;;-2.34;100.00
2000;BME280;1001;48.87406500;9.59633600;2022-12-15T03:06:05;93829.03;;;-2.12;100.00
2000;BME280;1001;48.87406500;9.59633600;2022-12-15T03:08:32;93816.84;;;-2.10;100.00
2000;BME280;1001;48.87406500;9.59633600;2022-12-15T03:10:59;93819.19;;;-2.29;100.00
2000;BME280;1001;48.87406500;9.59633600;2022-12-15T03:13:27;93828.47;;;-2.28;100.00
2000;BME280;1001;48.87406500;9.59633600;2022-12-15T03:15:54;93825.84;;;-2.35;100.00
2000;BME280;1001;48.87406500;9.59633600;2022-12-15T03:18:23;93820.22;;;-2.45;100.00
2000;BME280;1001;48.87406500;9.59633600;2022-12-15T03:20:50;93828.47;;;-2.49;100.00
2000;BME280;1001;48.87406500;9.59633600;2022-12-15T03:23:17;93836.81;;;-2.41;100.00
2000;BME280;1001;48.87406500;9.59633600;2022-12-15T03:25:47;93833.16;;;-2.32;100.00
2000;BME280;1001;48.87406500;9.59633600;2022-12-15T03:28:14;93837.50;;;-2.32;100.00
2000;BME280;1001;48.87406500;9.59633600;2022-12-15T03:30:41;93856.09;;;-2.24;100.00
2000;BME280;1001;48.87406500;9.59633600;2022-12-15T03:33:08;93843.09;;;-2.22;100.00
2000;BME280;1001;48.87406500;9.59633600;2022-12-15T03:35:36;93842.19;;;-2.15;100.00
2000;BME280;1001;48.87406500;9.59633600;2022-12-15T03:38:02;93838.09;;;-2.30;100.00
2000;BME280;1001;48.87406500;9.59633600;2022-12-15T03:40:29;93840.81;;;-2.32;100.00
2000;BME280;1001;48.87406500;9.59633600;2022-12-15T03:42:56;93846.28;;;-2.20;100.00
2000;BME280;1001;48.87406500;9.59633600;2022-12-15T03:45:24;93853.16;;;-2.21;100.00
2000;BME280;1001;48.87406500;9.59633600;2022-12-15T03:47:52;93860.00;;;-2.07;100.00
2000;BME280;1001;48.87406500;9.59633600;2022-12-15T03:50:22;93852.28;;;-2.13;100.00
2000;BME280;1001;48.87406500;9.59633600;2022-12-15T03:52:51;93857.09;;;-2.03;100.00
2000;BME280;1001;48.87406500;9.59633600;2022-12-15T03:55:19;93852.13;;;-2.05;100.00
2000;BME280;1001;48.87406500;9.59633600;2022-12-15T03:57:46;93851.22;;;-2.19;100.00
2000;BME280;1001;48.87406500;9.59633600;2022-12-15T04:00:14;93852.97;;;-2.19;100.00
2000;BME280;1001;48.87406500;9.59633600;2022-12-15T04:02:41;93860.66;;;-2.19;100.00
2000;BME280;1001;48.87406500;9.59633600;2022-12-15T04:05:12;93869.13;;;-2.19;100.00
2000;BME280;1001;48.87406500;9.59633600;2022-12-15T04:07:40;93870.50;;;-2.23;100.00
2000;BME280;1001;48.87406500;9.59633600;2022-12-15T04:10:09;93874.13;;;-2.11;100.00
2000;BME280;1001;48.87406500;9.59633600;2022-12-15T04:12:36;93877.88;;;-2.13;100.00
2000;BME280;1001;48.87406500;9.59633600;2022-12-15T04:15:05;93879.44;;;-2.12;100.00
2000;BME280;1001;48.87406500;9.59633600;2022-12-15T04:17:32;93875.81;;;-2.18;100.00
2000;BME280;1001;48.87406500;9.59633600;2022-12-15T04:19:59;93897.31;;;-1.97;100.00
2000;BME280;1001;48.87406500;9.59633600;2022-12-15T04:22:35;93913.44;;;-2.03;100.00
2000;BME280;1001;48.87406500;9.59633600;2022-12-15T04:25:02;93905.00;;;-1.97;100.00
2000;BME280;1001;48.87406500;9.59633600;2022-12-15T04:27:48;93890.44;;;-1.97;100.00
2000;BME280;1001;48.87406500;9.59633600;2022-12-15T04:30:32;93884.06;;;-2.01;100.00
2000;BME280;1001;48.87406500;9.59633600;2022-12-15T04:33:16;93896.56;;;-2.13;100.00
2000;BME280;1001;48.87406500;9.59633600;2022-12-15T04:36:01;93896.56;;;-2.13;100.00
2000;BME280;1001;48.87406500;9.59633600;2022-12-15T04:38:45;93891.13;;;-2.24;100.00
2000;BME280;1001;48.87406500;9.59633600;2022-12-15T04:41:30;93905.03;;;-2.12;100.00
2000;BME280;1001;48.87406500;9.59633600;2022-12-15T04:44:16;93911.09;;;-1.98;100.00
2000;BME280;1001;48.87406500;9.59633600;2022-12-15T04:47:01;93918.47;;;-2.25;100.00
2000;BME280;1001;48.87406500;9.59633600;2022-12-15T04:49:45;93902.44;;;-2.33;100.00
2000;BME280;1001;48.87406500;9.59633600;2022-12-15T04:52:29;93896.69;;;-2.21;100.00
2000;BME280;1001;48.87406500;9.59633600;2022-12-15T04:55:13;93896.78;;;-2.29;100.00
2000;BME280;1001;48.87406500;9.59633600;2022-12-15T04:57:57;93901.94;;;-2.43;100.00
2000;BME280;1001;48.87406500;9.59633600;2022-12-15T05:00:42;93903.38;;;-2.55;100.00
2000;BME280;1001;48.87406500;9.59633600;2022-12-15T05:03:26;93903.13;;;-2.60;100.00
2000;BME280;1001;48.87406500;9.59633600;2022-12-15T05:06:10;93899.41;;;-2.58;100.00
2000;BME280;1001;48.87406500;9.59633600;2022-12-15T05:08:54;93904.09;;;-2.61;100.00
2000;BME280;1001;48.87406500;9.59633600;2022-12-15T05:11:38;93899.78;;;-2.61;100.00
2000;BME280;1001;48.87406500;9.59633600;2022-12-15T05:14:22;93897.63;;;-2.43;100.00
2000;BME280;1001;48.87406500;9.59633600;2022-12-15T05:17:07;93900.44;;;-2.38;100.00
2000;BME280;1001;48.87406500;9.59633600;2022-12-15T05:19:51;93898.75;;;-2.45;100.00
2000;BME280;1001;48.87406500;9.59633600;2022-12-15T05:22:35;93910.28;;;-2.56;100.00
2000;BME280;1001;48.87406500;9.59633600;2022-12-15T05:25:19;93907.31;;;-2.53;100.00
2000;BME280;1001;48.87406500;9.59633600;2022-12-15T05:28:05;93907.50;;;-2.40;100.00
2000;BME280;1001;48.87406500;9.59633600;2022-12-15T05:30:49;93900.69;;;-2.33;100.00
2000;BME280;1001;48.87406500;9.59633600;2022-12-15T05:33:35;93903.88;;;-2.45;100.00
2000;BME280;1001;48.87406500;9.59633600;2022-12-15T05:36:02;93909.28;;;-2.55;100.00
2000;BME280;1001;48.87406500;9.59633600;2022-12-15T05:38:28;93907.31;;;-2.53;100.00
2000;BME280;1001;48.87406500;9.59633600;2022-12-15T05:40:56;93908.59;;;-2.49;100.00
2000;BME280;1001;48.87406500;9.59633600;2022-12-15T05:43:22;93906.09;;;-2.57;100.00
2000;BME280;1001;48.87406500;9.59633600;2022-12-15T05:45:49;93908.31;;;-2.54;100.00
2000;BME280;1001;48.87406500;9.59633600;2022-12-15T05:48:16;93912.28;;;-2.51;100.00
2000;BME280;1001;48.87406500;9.59633600;2022-12-15T05:50:44;93913.31;;;-2.46;100.00
2000;BME280;1001;48.87406500;9.59633600;2022-12-15T05:53:10;93925.56;;;-2.41;100.00
2000;BME280;1001;48.87406500;9.59633600;2022-12-15T05:55:37;93922.16;;;-2.48;100.00
2000;BME280;1001;48.87406500;9.59633600;2022-12-15T05:58:04;93917.03;;;-2.48;100.00
2000;BME280;1001;48.87406500;9.59633600;2022-12-15T06:00:30;93921.44;;;-2.28;100.00
2000;BME280;1001;48.87406500;9.59633600;2022-12-15T06:02:57;93910.47;;;-2.36;100.00
2000;BME280;1001;48.87406500;9.59633600;2022-12-15T06:05:24;93900.84;;;-2.34;100.00
2000;BME280;1001;48.87406500;9.59633600;2022-12-15T06:07:51;93909.22;;;-2.26;100.00
2000;BME280;1001;48.87406500;9.59633600;2022-12-15T06:10:18;93908.09;;;-2.23;100.00
2000;BME280;1001;48.87406500;9.59633600;2022-12-15T06:12:45;93904.41;;;-2.35;100.00
2000;BME280;1001;48.87406500;9.59633600;2022-12-15T06:15:12;93892.97;;;-2.54;100.00
2000;BME280;1001;48.87406500;9.59633600;2022-12-15T06:17:38;93899.66;;;-2.53;100.00
2000;BME280;1001;48.87406500;9.59633600;2022-12-15T06:20:06;93909.81;;;-2.59;100.00
2000;BME280;1001;48.87406500;9.59633600;2022-12-15T06:22:33;93916.94;;;-2.55;100.00
2000;BME280;1001;48.87406500;9.59633600;2022-12-15T06:25:01;93929.00;;;-2.34;100.00
2000;BME280;1001;48.87406500;9.59633600;2022-12-15T06:27:27;93925.41;;;-2.40;100.00
2000;BME280;1001;48.87406500;9.59633600;2022-12-15T06:29:54;93922.69;;;-2.53;100.00
2000;BME280;1001;48.87406500;9.59633600;2022-12-15T06:32:21;93926.13;;;-2.46;100.00
2000;BME280;1001;48.87406500;9.59633600;2022-12-15T06:34:47;93938.28;;;-2.48;100.00
2000;BME280;1001;48.87406500;9.59633600;2022-12-15T06:37:14;93951.91;;;-2.62;100.00
2000;BME280;1001;48.87406500;9.59633600;2022-12-15T06:39:41;93950.94;;;-2.61;100.00
2000;BME280;1001;48.87406500;9.59633600;2022-12-15T06:42:09;93945.72;;;-2.53;100.00
2000;BME280;1001;48.87406500;9.59633600;2022-12-15T06:44:36;93947.66;;;-2.40;100.00
2000;BME280;1001;48.87406500;9.59633600;2022-12-15T06:47:02;93936.72;;;-2.49;100.00
2000;BME280;1001;48.87406500;9.59633600;2022-12-15T06:49:29;93927.63;;;-2.51;100.00
2000;BME280;1001;48.87406500;9.59633600;2022-12-15T06:51:56;93941.66;;;-2.47;100.00
2000;BME280;1001;48.87406500;9.59633600;2022-12-15T06:54:22;93936.38;;;-2.60;100.00
2000;BME280;1001;48.87406500;9.59633600;2022-12-15T06:56:49;93921.84;;;-2.74;100.00
2000;BME280;1001;48.87406500;9.59633600;2022-12-15T06:59:17;93936.00;;;-2.72;100.00
2000;BME280;1001;48.87406500;9.59633600;2022-12-15T07:01:44;93935.84;;;-2.56;100.00
2000;BME280;1001;48.87406500;9.59633600;2022-12-15T07:04:10;93937.53;;;-2.63;100.00
2000;BME280;1001;48.87406500;9.59633600;2022-12-15T07:06:38;93942.91;;;-2.72;100.00
2000;BME280;1001;48.87406500;9.59633600;2022-12-15T07:09:06;93940.16;;;-2.71;100.00
2000;BME280;1001;48.87406500;9.59633600;2022-12-15T07:11:34;93954.38;;;-2.68;100.00
2000;BME280;1001;48.87406500;9.59633600;2022-12-15T07:14:02;93957.00;;;-2.62;100.00
2000;BME280;1001;48.87406500;9.59633600;2022-12-15T07:16:30;93932.31;;;-2.55;100.00
2000;BME280;1001;48.87406500;9.59633600;2022-12-15T07:18:57;93922.88;;;-2.69;100.00
2000;BME280;1001;48.87406500;9.59633600;2022-12-15T07:21:23;93935.84;;;-2.70;100.00
2000;BME280;1001;48.87406500;9.59633600;2022-12-15T07:23:50;93931.44;;;-2.77;100.00
2000;BME280;1001;48.87406500;9.59633600;2022-12-15T07:26:17;93946.34;;;-2.80;100.00
2000;BME280;1001;48.87406500;9.59633600;2022-12-15T07:28:43;93942.66;;;-2.78;100.00
2000;BME280;1001;48.87406500;9.59633600;2022-12-15T07:31:10;93929.66;;;-2.61;100.00
2000;BME280;1001;48.87406500;9.59633600;2022-12-15T07:33:38;93926.84;;;-2.66;100.00
2000;BME280;1001;48.87406500;9.59633600;2022-12-15T07:36:05;93933.44;;;-2.72;100.00
2000;BME280;1001;48.87406500;9.59633600;2022-12-15T07:38:33;93941.13;;;-2.57;100.00
2000;BME280;1001;48.87406500;9.59633600;2022-12-15T07:41:00;93941.41;;;-2.67;100.00
2000;BME280;1001;48.87406500;9.59633600;2022-12-15T07:43:27;93942.00;;;-2.65;100.00
2000;BME280;1001;48.87406500;9.59633600;2022-12-15T07:45:54;93952.25;;;-2.50;100.00
2000;BME280;1001;48.87406500;9.59633600;2022-12-15T07:48:21;93956.75;;;-2.38;100.00
2000;BME280;1001;48.87406500;9.59633600;2022-12-15T07:50:50;93956.66;;;-2.44;100.00
2000;BME280;1001;48.87406500;9.59633600;2022-12-15T07:53:21;93957.97;;;-2.48;100.00
2000;BME280;1001;48.87406500;9.59633600;2022-12-15T07:55:52;93964.94;;;-2.42;100.00
2000;BME280;1001;48.87406500;9.59633600;2022-12-15T07:58:19;93951.88;;;-2.33;100.00
2000;BME280;1001;48.87406500;9.59633600;2022-12-15T08:00:46;93952.31;;;-2.29;100.00
2000;BME280;1001;48.87406500;9.59633600;2022-12-15T08:03:12;93955.84;;;-2.30;100.00
2000;BME280;1001;48.87406500;9.59633600;2022-12-15T08:05:39;93957.16;;;-2.20;100.00
2000;BME280;1001;48.87406500;9.59633600;2022-12-15T08:08:07;93972.94;;;-2.01;100.00
2000;BME280;1001;48.87406500;9.59633600;2022-12-15T08:10:37;93983.34;;;-2.03;100.00
2000;BME280;1001;48.87406500;9.59633600;2022-12-15T08:13:04;93983.59;;;-1.98;100.00
2000;BME280;1001;48.87406500;9.59633600;2022-12-15T08:15:33;93996.03;;;-1.80;100.00
2000;BME280;1001;48.87406500;9.59633600;2022-12-15T08:18:00;93987.94;;;-1.77;100.00
2000;BME280;1001;48.87406500;9.59633600;2022-12-15T08:20:27;93996.47;;;-1.91;100.00
2000;BME280;1001;48.87406500;9.59633600;2022-12-15T08:22:54;94001.03;;;-1.87;100.00
2000;BME280;1001;48.87406500;9.59633600;2022-12-15T08:25:22;94010.03;;;-1.76;100.00
2000;BME280;1001;48.87406500;9.59633600;2022-12-15T08:27:49;94018.25;;;-1.66;100.00
2000;BME280;1001;48.87406500;9.59633600;2022-12-15T08:30:16;94026.25;;;-1.55;100.00
2000;BME280;1001;48.87406500;9.59633600;2022-12-15T08:32:43;94021.97;;;-1.48;100.00
2000;BME280;1001;48.87406500;9.59633600;2022-12-15T08:35:10;94029.44;;;-1.31;100.00
2000;BME280;1001;48.87406500;9.59633600;2022-12-15T08:37:37;94037.13;;;-1.31;100.00
2000;BME280;1001;48.87406500;9.59633600;2022-12-15T08:40:05;94021.09;;;-1.40;100.00
2000;BME280;1001;48.87406500;9.59633600;2022-12-15T08:42:34;94036.22;;;-1.24;100.00
2000;BME280;1001;48.87406500;9.59633600;2022-12-15T08:45:01;94023.91;;;-1.35;100.00
2000;BME280;1001;48.87406500;9.59633600;2022-12-15T08:47:28;94015.00;;;-1.32;100.00
2000;BME280;1001;48.87406500;9.59633600;2022-12-15T08:49:54;94013.13;;;-1.24;100.00
2000;BME280;1001;48.87406500;9.59633600;2022-12-15T08:52:21;94009.41;;;-1.21;100.00
2000;BME280;1001;48.87406500;9.59633600;2022-12-15T08:54:48;94006.16;;;-1.30;100.00
2000;BME280;1001;48.87406500;9.59633600;2022-12-15T08:57:15;94003.94;;;-1.18;100.00
2000;BME280;1001;48.87406500;9.59633600;2022-12-15T08:59:43;94010.78;;;-1.25;100.00
2000;BME280;1001;48.87406500;9.59633600;2022-12-15T09:02:11;94019.13;;;-1.17;100.00
2000;BME280;1001;48.87406500;9.59633600;2022-12-15T09:04:38;94013.94;;;-1.23;100.00
2000;BME280;1001;48.87406500;9.59633600;2022-12-15T09:07:05;94016.72;;;-1.40;100.00
2000;BME280;1001;48.87406500;9.59633600;2022-12-15T09:09:31;94019.63;;;-1.28;100.00
2000;BME280;1001;48.87406500;9.59633600;2022-12-15T09:11:58;94029.13;;;-1.22;100.00
2000;BME280;1001;48.87406500;9.59633600;2022-12-15T09:14:25;94026.69;;;-1.30;100.00
2000;BME280;1001;48.87406500;9.59633600;2022-12-15T09:16:53;94027.97;;;-1.19;100.00
2000;BME280;1001;48.87406500;9.59633600;2022-12-15T09:19:19;94039.09;;;-1.12;100.00
2000;BME280;1001;48.87406500;9.59633600;2022-12-15T09:21:46;94037.63;;;-1.00;100.00
2000;BME280;1001;48.87406500;9.59633600;2022-12-15T09:24:13;94030.59;;;-1.13;100.00
2000;BME280;1001;48.87406500;9.59633600;2022-12-15T09:26:40;94026.44;;;-0.93;100.00
2000;BME280;1001;48.87406500;9.59633600;2022-12-15T09:29:09;94026.03;;;-0.90;100.00
2000;BME280;1001;48.87406500;9.59633600;2022-12-15T09:31:38;94023.91;;;-0.86;100.00
2000;BME280;1001;48.87406500;9.59633600;2022-12-15T09:34:06;94016.69;;;-0.76;100.00
2000;BME280;1001;48.87406500;9.59633600;2022-12-15T09:36:32;94012.63;;;-0.92;100.00
2000;BME280;1001;48.87406500;9.59633600;2022-12-15T09:39:00;94011.50;;;-0.83;100.00
2000;BME280;1001;48.87406500;9.59633600;2022-12-15T09:41:29;94021.16;;;-0.85;100.00
2000;BME280;1001;48.87406500;9.59633600;2022-12-15T09:44:00;94010.28;;;-0.87;100.00
2000;BME280;1001;48.87406500;9.59633600;2022-12-15T09:46:42;94013.19;;;-0.69;100.00
2000;BME280;1001;48.87406500;9.59633600;2022-12-15T09:49:17;94008.72;;;-0.60;100.00
2000;BME280;1001;48.87406500;9.59633600;2022-12-15T09:51:52;94008.56;;;-0.80;100.00
2000;BME280;1001;48.87406500;9.59633600;2022-12-15T09:54:22;94011.66;;;-0.63;100.00
2000;BME280;1001;48.87406500;9.59633600;2022-12-15T09:56:55;94011.91;;;-0.51;100.00
2000;BME280;1001;48.87406500;9.59633600;2022-12-15T09:59:29;93999.59;;;-0.28;100.00
2000;BME280;1001;48.87406500;9.59633600;2022-12-15T10:02:10;93993.56;;;-0.48;100.00
2000;BME280;1001;48.87406500;9.59633600;2022-12-15T10:04:46;93993.59;;;-0.42;100.00
2000;BME280;1001;48.87406500;9.59633600;2022-12-15T10:07:18;93992.63;;;-0.41;99.82
2000;BME280;1001;48.87406500;9.59633600;2022-12-15T10:09:47;94000.88;;;-0.11;99.17
2000;BME280;1001;48.87406500;9.59633600;2022-12-15T10:12:17;93992.41;;;-0.46;100.00
2000;BME280;1001;48.87406500;9.59633600;2022-12-15T10:14:50;93990.50;;;-0.65;100.00
2000;BME280;1001;48.87406500;9.59633600;2022-12-15T10:17:21;93997.69;;;-0.54;100.00
2000;BME280;1001;48.87406500;9.59633600;2022-12-15T10:19:55;94005.78;;;-0.57;100.00
2000;BME280;1001;48.87406500;9.59633600;2022-12-15T10:22:27;94008.00;;;-0.47;100.00
2000;BME280;1001;48.87406500;9.59633600;2022-12-15T10:24:58;94000.22;;;-0.60;100.00
2000;BME280;1001;48.87406500;9.59633600;2022-12-15T10:27:37;94008.72;;;-0.60;100.00
2000;BME280;1001;48.87406500;9.59633600;2022-12-15T10:30:10;94018.22;;;-0.26;100.00
2000;BME280;1001;48.87406500;9.59633600;2022-12-15T10:32:43;94020.50;;;-0.65;100.00
2000;BME280;1001;48.87406500;9.59633600;2022-12-15T10:35:18;94022.97;;;-0.51;100.00
2000;BME280;1001;48.87406500;9.59633600;2022-12-15T10:37:46;94020.47;;;-0.38;100.00
2000;BME280;1001;48.87406500;9.59633600;2022-12-15T10:40:18;94020.41;;;-0.51;100.00
2000;BME280;1001;48.87406500;9.59633600;2022-12-15T10:42:46;94028.09;;;-0.57;100.00
2000;BME280;1001;48.87406500;9.59633600;2022-12-15T10:45:33;94016.66;;;-0.55;100.00
2000;BME280;1001;48.87406500;9.59633600;2022-12-15T10:48:01;94017.22;;;-0.25;100.00
2000;BME280;1001;48.87406500;9.59633600;2022-12-15T10:50:29;94003.47;;;-0.45;100.00
2000;BME280;1001;48.87406500;9.59633600;2022-12-15T10:52:56;93991.00;;;-0.48;99.83
2000;BME280;1001;48.87406500;9.59633600;2022-12-15T10:55:36;93976.16;;;-0.59;100.00
2000;BME280;1001;48.87406500;9.59633600;2022-12-15T10:58:13;93971.66;;;-0.44;100.00
2000;BME280;1001;48.87406500;9.59633600;2022-12-15T11:00:40;93961.47;;;-0.65;100.00
2000;BME280;1001;48.87406500;9.59633600;2022-12-15T11:03:20;93970.50;;;-0.76;100.00
2000;BME280;1001;48.87406500;9.59633600;2022-12-15T11:05:52;93977.41;;;-0.77;100.00
2000;BME280;1001;48.87406500;9.59633600;2022-12-15T11:08:20;93971.59;;;-0.57;100.00
2000;BME280;1001;48.87406500;9.59633600;2022-12-15T11:10:52;93971.66;;;-0.44;100.00
2000;BME280;1001;48.87406500;9.59633600;2022-12-15T11:13:37;93966.13;;;-0.48;100.00
2000;BME280;1001;48.87406500;9.59633600;2022-12-15T11:16:13;93966.84;;;-0.60;100.00
2000;BME280;1001;48.87406500;9.59633600;2022-12-15T11:18:45;93952.97;;;-0.66;100.00
2000;BME280;1001;48.87406500;9.59633600;2022-12-15T11:21:19;93948.72;;;-0.52;100.00
2000;BME280;1001;48.87406500;9.59633600;2022-12-15T11:24:02;93942.19;;;-0.55;100.00
2000;BME280;1001;48.87406500;9.59633600;2022-12-15T11:26:39;93943.59;;;-0.52;100.00
2000;BME280;1001;48.87406500;9.59633600;2022-12-15T11:29:16;93942.44;;;-0.50;100.00
2000;BME280;1001;48.87406500;9.59633600;2022-12-15T11:31:44;93935.69;;;-0.51;100.00
2000;BME280;1001;48.87406500;9.59633600;2022-12-15T11:34:12;93930.00;;;-0.40;100.00
2000;BME280;1001;48.87406500;9.59633600;2022-12-15T11:37:06;93923.91;;;-0.39;100.00
2000;BME280;1001;48.87406500;9.59633600;2022-12-15T11:39:57;93937.16;;;-0.35;100.00
2000;BME280;1001;48.87406500;9.59633600;2022-12-15T11:42:33;93950.41;;;-0.32;100.00
2000;BME280;1001;48.87406500;9.59633600;2022-12-15T11:45:14;93962.19;;;-0.03;100.00
2000;BME280;1001;48.87406500;9.59633600;2022-12-15T11:47:47;93964.47;;;-0.21;100.00
2000;BME280;1001;48.87406500;9.59633600;2022-12-15T11:50:28;93957.06;;;-0.44;100.00
2000;BME280;1001;48.87406500;9.59633600;2022-12-15T11:55:56;93955.25;;;-0.50;100.00
2000;BME280;1001;48.87406500;9.59633600;2022-12-15T11:58:55;93937.78;;;-0.27;100.00
2000;BME280;1001;48.87406500;9.59633600;2022-12-15T12:01:43;93935.13;;;-0.46;100.00
2000;BME280;1001;48.87406500;9.59633600;2022-12-15T12:04:19;93926.88;;;-0.35;100.00
2000;BME280;1001;48.87406500;9.59633600;2022-12-15T12:06:54;93926.28;;;-0.37;100.00